sensor_id;sensor_type;location;lat;lon;timestamp;P1;durP1;ratioP1;P2;durP2;ratioP2
5195;SDS011;2617;51.006;12.436;2023-10-13T00:00:41;15.30;;;7.40;;
5195;SDS011;2617;51.006;12.436;2023-10-13T00:05:43;9.07;;;6.95;;
5195;SDS011;2617;51.006;12.436;2023-10-13T00:10:44;7.90;;;6.87;;
5195;SDS011;2617;51.006;12.436;2023-10-13T00:15:46;12.63;;;7.57;;
5195;SDS011;2617;51.006;12.436;2023-10-13T00:20:54;10.70;;;6.83;;
5195;SDS011;2617;51.006;12.436;2023-10-13T00:25:55;5.80;;;5.07;;
5195;SDS011;2617;51.006;12.436;2023-10-13T00:30:59;8.63;;;6.17;;
5195;SDS011;2617;51.006;12.436;2023-10-13T00:36:01;6.20;;;5.57;;
5195;SDS011;2617;51.006;12.436;2023-10-13T00:41:03;7.13;;;5.40;;
5195;SDS011;2617;51.006;12.436;2023-10-13T00:46:20;8.00;;;5.60;;
5195;SDS011;2617;51.006;12.436;2023-10-13T00:51:22;6.95;;;5.80;;
5195;SDS011;2617;51.006;12.436;2023-10-13T00:56:40;7.32;;;5.72;;
5195;SDS011;2617;51.006;12.436;2023-10-13T01:01:42;7.83;;;5.70;;
5195;SDS011;2617;51.006;12.436;2023-10-13T01:06:44;7.53;;;5.87;;
5195;SDS011;2617;51.006;12.436;2023-10-13T01:11:47;8.20;;;5.63;;
5195;SDS011;2617;51.006;12.436;2023-10-13T01:16:49;5.85;;;5.28;;
5195;SDS011;2617;51.006;12.436;2023-10-13T01:21:51;8.30;;;6.10;;
5195;SDS011;2617;51.006;12.436;2023-10-13T01:26:55;8.83;;;6.60;;
5195;SDS011;2617;51.006;12.436;2023-10-13T01:31:57;7.30;;;6.60;;
5195;SDS011;2617;51.006;12.436;2023-10-13T01:36:59;8.57;;;5.87;;
5195;SDS011;2617;51.006;12.436;2023-10-13T01:42:01;8.43;;;6.30;;
5195;SDS011;2617;51.006;12.436;2023-10-13T01:47:03;11.23;;;6.68;;
5195;SDS011;2617;51.006;12.436;2023-10-13T01:52:06;8.20;;;6.90;;
5195;SDS011;2617;51.006;12.436;2023-10-13T01:57:09;9.60;;;6.00;;
5195;SDS011;2617;51.006;12.436;2023-10-13T02:02:15;8.07;;;6.62;;
5195;SDS011;2617;51.006;12.436;2023-10-13T02:07:17;10.80;;;6.00;;
5195;SDS011;2617;51.006;12.436;2023-10-13T02:12:18;11.90;;;6.33;;
5195;SDS011;2617;51.006;12.436;2023-10-13T02:17:20;16.90;;;7.62;;
5195;SDS011;2617;51.006;12.436;2023-10-13T02:22:22;8.23;;;6.43;;
5195;SDS011;2617;51.006;12.436;2023-10-13T02:27:27;9.30;;;6.50;;
5195;SDS011;2617;51.006;12.436;2023-10-13T02:32:29;8.73;;;6.73;;
5195;SDS011;2617;51.006;12.436;2023-10-13T02:37:31;11.20;;;7.00;;
5195;SDS011;2617;51.006;12.436;2023-10-13T02:42:32;10.40;;;7.20;;
5195;SDS011;2617;51.006;12.436;2023-10-13T02:47:34;10.57;;;7.30;;
5195;SDS011;2617;51.006;12.436;2023-10-13T02:52:36;9.97;;;6.77;;
5195;SDS011;2617;51.006;12.436;2023-10-13T02:57:37;12.05;;;7.28;;
5195;SDS011;2617;51.006;12.436;2023-10-13T03:02:40;8.27;;;6.63;;
5195;SDS011;2617;51.006;12.436;2023-10-13T03:07:43;12.73;;;8.40;;
5195;SDS011;2617;51.006;12.436;2023-10-13T03:12:46;15.50;;;7.53;;
5195;SDS011;2617;51.006;12.436;2023-10-13T03:17:48;13.23;;;8.00;;
5195;SDS011;2617;51.006;12.436;2023-10-13T03:22:52;11.53;;;6.97;;
5195;SDS011;2617;51.006;12.436;2023-10-13T03:27:53;10.40;;;7.23;;
5195;SDS011;2617;51.006;12.436;2023-10-13T03:33:03;12.27;;;7.30;;
5195;SDS011;2617;51.006;12.436;2023-10-13T03:38:08;9.57;;;7.00;;
5195;SDS011;2617;51.006;12.436;2023-10-13T03:43:18;10.00;;;6.60;;
5195;SDS011;2617;51.006;12.436;2023-10-13T03:48:31;11.73;;;6.53;;
5195;SDS011;2617;51.006;12.436;2023-10-13T03:53:33;10.50;;;6.80;;
5195;SDS011;2617;51.006;12.436;2023-10-13T03:58:35;8.40;;;7.07;;
5195;SDS011;2617;51.006;12.436;2023-10-13T04:03:36;12.13;;;6.73;;
5195;SDS011;2617;51.006;12.436;2023-10-13T04:08:38;10.37;;;7.10;;
5195;SDS011;2617;51.006;12.436;2023-10-13T04:13:47;9.43;;;6.50;;
5195;SDS011;2617;51.006;12.436;2023-10-13T04:18:51;11.20;;;7.10;;
5195;SDS011;2617;51.006;12.436;2023-10-13T04:24:09;10.83;;;6.10;;
5195;SDS011;2617;51.006;12.436;2023-10-13T04:29:16;9.33;;;6.60;;
5195;SDS011;2617;51.006;12.436;2023-10-13T04:34:19;10.25;;;7.00;;
5195;SDS011;2617;51.006;12.436;2023-10-13T04:39:21;9.90;;;6.40;;
5195;SDS011;2617;51.006;12.436;2023-10-13T04:44:29;8.57;;;6.55;;
5195;SDS011;2617;51.006;12.436;2023-10-13T04:49:39;10.87;;;6.73;;
5195;SDS011;2617;51.006;12.436;2023-10-13T04:54:42;12.00;;;6.30;;
5195;SDS011;2617;51.006;12.436;2023-10-13T05:00:03;10.77;;;6.78;;
5195;SDS011;2617;51.006;12.436;2023-10-13T05:05:08;10.77;;;7.20;;
5195;SDS011;2617;51.006;12.436;2023-10-13T05:10:28;7.40;;;6.30;;
5195;SDS011;2617;51.006;12.436;2023-10-13T05:15:42;8.50;;;6.70;;
5195;SDS011;2617;51.006;12.436;2023-10-13T05:20:43;10.17;;;6.40;;
5195;SDS011;2617;51.006;12.436;2023-10-13T05:25:50;6.93;;;6.17;;
5195;SDS011;2617;51.006;12.436;2023-10-13T05:30:58;8.97;;;5.87;;
5195;SDS011;2617;51.006;12.436;2023-10-13T05:36:09;11.60;;;6.03;;
5195;SDS011;2617;51.006;12.436;2023-10-13T05:41:13;7.43;;;6.50;;
5195;SDS011;2617;51.006;12.436;2023-10-13T05:46:20;8.80;;;6.10;;
5195;SDS011;2617;51.006;12.436;2023-10-13T05:51:32;9.30;;;6.80;;
5195;SDS011;2617;51.006;12.436;2023-10-13T05:56:51;8.50;;;5.35;;
5195;SDS011;2617;51.006;12.436;2023-10-13T06:01:59;13.40;;;6.47;;
5195;SDS011;2617;51.006;12.436;2023-10-13T06:07:06;7.40;;;6.10;;
5195;SDS011;2617;51.006;12.436;2023-10-13T06:12:14;9.00;;;5.83;;
5195;SDS011;2617;51.006;12.436;2023-10-13T06:17:22;8.80;;;6.63;;
5195;SDS011;2617;51.006;12.436;2023-10-13T06:22:28;12.97;;;6.60;;
5195;SDS011;2617;51.006;12.436;2023-10-13T06:27:36;8.43;;;5.67;;
5195;SDS011;2617;51.006;12.436;2023-10-13T06:32:43;8.00;;;6.27;;
5195;SDS011;2617;51.006;12.436;2023-10-13T06:37:45;12.07;;;6.33;;
5195;SDS011;2617;51.006;12.436;2023-10-13T06:42:47;8.77;;;6.57;;
5195;SDS011;2617;51.006;12.436;2023-10-13T06:47:48;12.10;;;6.47;;
5195;SDS011;2617;51.006;12.436;2023-10-13T06:52:50;10.27;;;6.67;;
5195;SDS011;2617;51.006;12.436;2023-10-13T06:57:52;8.05;;;5.78;;
5195;SDS011;2617;51.006;12.436;2023-10-13T07:02:54;9.10;;;5.87;;
5195;SDS011;2617;51.006;12.436;2023-10-13T07:07:56;11.33;;;5.63;;
5195;SDS011;2617;51.006;12.436;2023-10-13T07:12:58;10.10;;;6.37;;
5195;SDS011;2617;51.006;12.436;2023-10-13T07:18:00;11.43;;;5.70;;
5195;SDS011;2617;51.006;12.436;2023-10-13T07:23:05;6.33;;;5.67;;
5195;SDS011;2617;51.006;12.436;2023-10-13T07:28:08;7.97;;;6.43;;
5195;SDS011;2617;51.006;12.436;2023-10-13T07:33:11;15.03;;;6.53;;
5195;SDS011;2617;51.006;12.436;2023-10-13T07:38:12;11.33;;;5.40;;
5195;SDS011;2617;51.006;12.436;2023-10-13T07:43:15;14.32;;;5.87;;
5195;SDS011;2617;51.006;12.436;2023-10-13T07:48:17;8.70;;;5.83;;
5195;SDS011;2617;51.006;12.436;2023-10-13T07:53:20;6.90;;;5.37;;
5195;SDS011;2617;51.006;12.436;2023-10-13T07:58:24;9.53;;;6.20;;
5195;SDS011;2617;51.006;12.436;2023-10-13T08:03:27;8.43;;;5.50;;
5195;SDS011;2617;51.006;12.436;2023-10-13T08:08:34;8.73;;;5.80;;
5195;SDS011;2617;51.006;12.436;2023-10-13T08:13:39;6.83;;;5.47;;
5195;SDS011;2617;51.006;12.436;2023-10-13T08:18:41;8.87;;;5.37;;
5195;SDS011;2617;51.006;12.436;2023-10-13T08:23:43;8.57;;;5.90;;
5195;SDS011;2617;51.006;12.436;2023-10-13T08:28:50;10.43;;;5.57;;
5195;SDS011;2617;51.006;12.436;2023-10-13T08:33:52;11.00;;;5.40;;
5195;SDS011;2617;51.006;12.436;2023-10-13T08:38:54;12.83;;;5.90;;
5195;SDS011;2617;51.006;12.436;2023-10-13T08:43:55;6.72;;;4.68;;
5195;SDS011;2617;51.006;12.436;2023-10-13T08:48:58;10.60;;;5.33;;
5195;SDS011;2617;51.006;12.436;2023-10-13T08:54:06;12.93;;;5.73;;
5195;SDS011;2617;51.006;12.436;2023-10-13T08:59:09;10.63;;;5.50;;
5195;SDS011;2617;51.006;12.436;2023-10-13T09:04:13;9.97;;;5.50;;
5195;SDS011;2617;51.006;12.436;2023-10-13T09:09:22;11.05;;;5.28;;
5195;SDS011;2617;51.006;12.436;2023-10-13T09:14:28;10.93;;;5.00;;
5195;SDS011;2617;51.006;12.436;2023-10-13T09:19:43;6.83;;;4.63;;
5195;SDS011;2617;51.006;12.436;2023-10-13T09:24:35;12.70;;;5.30;;
5195;SDS011;2617;51.006;12.436;2023-10-13T09:29:37;12.30;;;4.60;;
5195;SDS011;2617;51.006;12.436;2023-10-13T09:34:39;13.23;;;5.23;;
5195;SDS011;2617;51.006;12.436;2023-10-13T09:39:41;6.83;;;5.00;;
5195;SDS011;2617;51.006;12.436;2023-10-13T09:44:45;8.03;;;5.07;;
5195;SDS011;2617;51.006;12.436;2023-10-13T09:49:51;7.65;;;5.30;;
5195;SDS011;2617;51.006;12.436;2023-10-13T09:55:00;11.37;;;5.20;;
5195;SDS011;2617;51.006;12.436;2023-10-13T10:00:09;8.27;;;4.50;;
5195;SDS011;2617;51.006;12.436;2023-10-13T10:05:09;11.80;;;5.10;;
5195;SDS011;2617;51.006;12.436;2023-10-13T10:10:20;9.70;;;4.80;;
5195;SDS011;2617;51.006;12.436;2023-10-13T10:15:24;11.47;;;5.03;;
5195;SDS011;2617;51.006;12.436;2023-10-13T10:20:33;8.40;;;4.77;;
5195;SDS011;2617;51.006;12.436;2023-10-13T10:25:43;10.80;;;4.13;;
5195;SDS011;2617;51.006;12.436;2023-10-13T10:30:45;10.87;;;4.27;;
5195;SDS011;2617;51.006;12.436;2023-10-13T10:35:57;7.43;;;4.35;;
5195;SDS011;2617;51.006;12.436;2023-10-13T10:40:49;13.33;;;5.37;;
5195;SDS011;2617;51.006;12.436;2023-10-13T10:46:01;9.48;;;3.92;;
5195;SDS011;2617;51.006;12.436;2023-10-13T10:51:03;9.93;;;4.07;;
5195;SDS011;2617;51.006;12.436;2023-10-13T10:56:08;10.93;;;4.83;;
5195;SDS011;2617;51.006;12.436;2023-10-13T11:01:12;9.15;;;4.55;;
5195;SDS011;2617;51.006;12.436;2023-10-13T11:06:14;9.50;;;4.05;;
5195;SDS011;2617;51.006;12.436;2023-10-13T11:11:27;9.17;;;4.13;;
5195;SDS011;2617;51.006;12.436;2023-10-13T11:16:20;14.50;;;5.60;;
5195;SDS011;2617;51.006;12.436;2023-10-13T11:21:22;10.73;;;3.92;;
5195;SDS011;2617;51.006;12.436;2023-10-13T11:31:34;16.20;;;4.43;;
5195;SDS011;2617;51.006;12.436;2023-10-13T11:36:36;16.90;;;5.30;;
5195;SDS011;2617;51.006;12.436;2023-10-13T11:41:38;12.03;;;4.17;;
5195;SDS011;2617;51.006;12.436;2023-10-13T11:46:40;9.00;;;4.93;;
5195;SDS011;2617;51.006;12.436;2023-10-13T11:51:59;9.32;;;4.68;;
5195;SDS011;2617;51.006;12.436;2023-10-13T11:57:03;10.43;;;4.80;;
5195;SDS011;2617;51.006;12.436;2023-10-13T12:02:05;7.90;;;4.20;;
5195;SDS011;2617;51.006;12.436;2023-10-13T12:07:18;11.63;;;4.93;;
5195;SDS011;2617;51.006;12.436;2023-10-13T12:12:22;10.23;;;4.40;;
5195;SDS011;2617;51.006;12.436;2023-10-13T12:17:28;10.43;;;4.10;;
5195;SDS011;2617;51.006;12.436;2023-10-13T12:22:29;11.77;;;4.82;;
5195;SDS011;2617;51.006;12.436;2023-10-13T12:27:37;7.97;;;4.20;;
5195;SDS011;2617;51.006;12.436;2023-10-13T12:32:44;8.57;;;4.10;;
5195;SDS011;2617;51.006;12.436;2023-10-13T12:37:46;11.30;;;4.53;;
5195;SDS011;2617;51.006;12.436;2023-10-13T12:42:51;5.53;;;4.00;;
5195;SDS011;2617;51.006;12.436;2023-10-13T12:47:59;6.22;;;4.22;;
5195;SDS011;2617;51.006;12.436;2023-10-13T12:53:06;7.80;;;4.47;;
5195;SDS011;2617;51.006;12.436;2023-10-13T12:58:08;9.17;;;4.37;;
5195;SDS011;2617;51.006;12.436;2023-10-13T13:03:09;10.27;;;4.87;;
5195;SDS011;2617;51.006;12.436;2023-10-13T13:08:11;10.57;;;3.97;;
5195;SDS011;2617;51.006;12.436;2023-10-13T13:13:13;11.90;;;4.70;;
5195;SDS011;2617;51.006;12.436;2023-10-13T13:18:15;8.10;;;4.43;;
5195;SDS011;2617;51.006;12.436;2023-10-13T13:23:16;10.93;;;4.47;;
5195;SDS011;2617;51.006;12.436;2023-10-13T13:28:19;15.38;;;5.03;;
5195;SDS011;2617;51.006;12.436;2023-10-13T13:33:21;12.00;;;4.40;;
5195;SDS011;2617;51.006;12.436;2023-10-13T13:38:23;6.90;;;3.60;;
5195;SDS011;2617;51.006;12.436;2023-10-13T13:43:24;7.73;;;4.87;;
5195;SDS011;2617;51.006;12.436;2023-10-13T13:48:32;7.93;;;4.20;;
5195;SDS011;2617;51.006;12.436;2023-10-13T13:53:34;7.73;;;4.77;;
5195;SDS011;2617;51.006;12.436;2023-10-13T13:58:36;8.47;;;4.40;;
5195;SDS011;2617;51.006;12.436;2023-10-13T14:03:39;9.47;;;4.90;;
5195;SDS011;2617;51.006;12.436;2023-10-13T14:08:41;6.53;;;4.63;;
5195;SDS011;2617;51.006;12.436;2023-10-13T14:13:44;7.17;;;3.90;;
5195;SDS011;2617;51.006;12.436;2023-10-13T14:18:50;10.73;;;4.55;;
5195;SDS011;2617;51.006;12.436;2023-10-13T14:23:52;12.13;;;4.77;;
5195;SDS011;2617;51.006;12.436;2023-10-13T14:28:55;8.97;;;4.20;;
5195;SDS011;2617;51.006;12.436;2023-10-13T14:34:02;7.57;;;4.10;;
5195;SDS011;2617;51.006;12.436;2023-10-13T14:39:05;7.73;;;4.10;;
5195;SDS011;2617;51.006;12.436;2023-10-13T14:44:08;12.17;;;4.77;;
5195;SDS011;2617;51.006;12.436;2023-10-13T14:49:11;11.50;;;4.50;;
5195;SDS011;2617;51.006;12.436;2023-10-13T14:54:13;8.47;;;3.70;;
5195;SDS011;2617;51.006;12.436;2023-10-13T14:59:14;6.67;;;3.87;;
5195;SDS011;2617;51.006;12.436;2023-10-13T15:04:16;9.30;;;3.87;;
5195;SDS011;2617;51.006;12.436;2023-10-13T15:09:18;7.33;;;3.47;;
5195;SDS011;2617;51.006;12.436;2023-10-13T15:14:21;13.23;;;4.60;;
5195;SDS011;2617;51.006;12.436;2023-10-13T15:19:23;8.90;;;4.40;;
5195;SDS011;2617;51.006;12.436;2023-10-13T15:24:25;9.32;;;4.22;;
5195;SDS011;2617;51.006;12.436;2023-10-13T15:29:27;6.85;;;4.45;;
5195;SDS011;2617;51.006;12.436;2023-10-13T15:34:32;5.32;;;3.55;;
5195;SDS011;2617;51.006;12.436;2023-10-13T15:39:33;7.95;;;4.37;;
5195;SDS011;2617;51.006;12.436;2023-10-13T15:44:35;6.28;;;3.60;;
5195;SDS011;2617;51.006;12.436;2023-10-13T15:49:37;5.18;;;3.92;;
5195;SDS011;2617;51.006;12.436;2023-10-13T15:54:39;7.35;;;3.67;;
5195;SDS011;2617;51.006;12.436;2023-10-13T15:59:41;11.70;;;4.60;;
5195;SDS011;2617;51.006;12.436;2023-10-13T16:04:44;7.50;;;4.37;;
5195;SDS011;2617;51.006;12.436;2023-10-13T16:09:46;10.37;;;4.77;;
5195;SDS011;2617;51.006;12.436;2023-10-13T16:14:49;9.20;;;4.50;;
5195;SDS011;2617;51.006;12.436;2023-10-13T16:19:51;7.03;;;4.35;;
5195;SDS011;2617;51.006;12.436;2023-10-13T16:24:53;5.20;;;3.57;;
5195;SDS011;2617;51.006;12.436;2023-10-13T16:29:55;6.80;;;3.50;;
5195;SDS011;2617;51.006;12.436;2023-10-13T16:34:56;11.70;;;4.50;;
5195;SDS011;2617;51.006;12.436;2023-10-13T16:39:58;9.80;;;4.00;;
5195;SDS011;2617;51.006;12.436;2023-10-13T16:45:02;9.40;;;4.63;;
5195;SDS011;2617;51.006;12.436;2023-10-13T16:50:10;8.30;;;3.97;;
5195;SDS011;2617;51.006;12.436;2023-10-13T16:55:14;7.40;;;3.90;;
5195;SDS011;2617;51.006;12.436;2023-10-13T17:00:16;8.73;;;4.23;;
5195;SDS011;2617;51.006;12.436;2023-10-13T17:05:18;9.43;;;4.10;;
5195;SDS011;2617;51.006;12.436;2023-10-13T17:10:19;10.10;;;4.90;;
5195;SDS011;2617;51.006;12.436;2023-10-13T17:15:22;6.75;;;4.20;;
5195;SDS011;2617;51.006;12.436;2023-10-13T17:20:24;7.13;;;3.83;;
5195;SDS011;2617;51.006;12.436;2023-10-13T17:25:26;8.17;;;3.93;;
5195;SDS011;2617;51.006;12.436;2023-10-13T17:30:29;8.23;;;4.30;;
5195;SDS011;2617;51.006;12.436;2023-10-13T17:35:30;5.77;;;4.60;;
5195;SDS011;2617;51.006;12.436;2023-10-13T17:40:33;4.20;;;3.40;;
5195;SDS011;2617;51.006;12.436;2023-10-13T17:45:37;8.30;;;4.20;;
5195;SDS011;2617;51.006;12.436;2023-10-13T17:50:39;7.62;;;4.10;;
5195;SDS011;2617;51.006;12.436;2023-10-13T17:55:41;8.97;;;4.07;;
5195;SDS011;2617;51.006;12.436;2023-10-13T18:00:42;10.50;;;4.37;;
5195;SDS011;2617;51.006;12.436;2023-10-13T18:05:45;11.23;;;4.07;;
5195;SDS011;2617;51.006;12.436;2023-10-13T18:10:52;6.40;;;3.90;;
5195;SDS011;2617;51.006;12.436;2023-10-13T18:15:53;8.07;;;4.90;;
5195;SDS011;2617;51.006;12.436;2023-10-13T18:21:00;6.93;;;4.53;;
5195;SDS011;2617;51.006;12.436;2023-10-13T18:26:02;7.78;;;4.15;;
5195;SDS011;2617;51.006;12.436;2023-10-13T18:31:03;8.53;;;4.30;;
5195;SDS011;2617;51.006;12.436;2023-10-13T18:36:09;8.20;;;3.80;;
5195;SDS011;2617;51.006;12.436;2023-10-13T18:41:11;8.23;;;4.63;;
5195;SDS011;2617;51.006;12.436;2023-10-13T18:46:13;13.47;;;8.10;;
5195;SDS011;2617;51.006;12.436;2023-10-13T18:51:15;7.50;;;4.10;;
5195;SDS011;2617;51.006;12.436;2023-10-13T18:56:18;7.13;;;3.50;;
5195;SDS011;2617;51.006;12.436;2023-10-13T19:01:22;8.53;;;4.27;;
5195;SDS011;2617;51.006;12.436;2023-10-13T19:06:25;12.80;;;6.13;;
5195;SDS011;2617;51.006;12.436;2023-10-13T19:11:27;6.30;;;4.07;;
5195;SDS011;2617;51.006;12.436;2023-10-13T19:16:29;8.60;;;4.27;;
5195;SDS011;2617;51.006;12.436;2023-10-13T19:21:31;5.90;;;3.70;;
5195;SDS011;2617;51.006;12.436;2023-10-13T19:26:38;8.77;;;3.85;;
5195;SDS011;2617;51.006;12.436;2023-10-13T19:31:39;8.57;;;5.33;;
5195;SDS011;2617;51.006;12.436;2023-10-13T19:36:42;6.13;;;3.40;;
5195;SDS011;2617;51.006;12.436;2023-10-13T19:41:44;7.40;;;3.53;;
5195;SDS011;2617;51.006;12.436;2023-10-13T19:46:45;6.10;;;3.70;;
5195;SDS011;2617;51.006;12.436;2023-10-13T19:51:47;9.70;;;5.00;;
5195;SDS011;2617;51.006;12.436;2023-10-13T19:56:50;10.80;;;3.63;;
5195;SDS011;2617;51.006;12.436;2023-10-13T20:01:52;8.03;;;3.50;;
5195;SDS011;2617;51.006;12.436;2023-10-13T20:06:54;6.22;;;3.50;;
5195;SDS011;2617;51.006;12.436;2023-10-13T20:11:56;6.23;;;3.37;;
5195;SDS011;2617;51.006;12.436;2023-10-13T20:16:58;7.35;;;3.67;;
5195;SDS011;2617;51.006;12.436;2023-10-13T20:22:00;10.53;;;3.70;;
5195;SDS011;2617;51.006;12.436;2023-10-13T20:27:03;4.90;;;3.40;;
5195;SDS011;2617;51.006;12.436;2023-10-13T20:32:05;6.10;;;3.92;;
5195;SDS011;2617;51.006;12.436;2023-10-13T20:37:07;12.03;;;3.70;;
5195;SDS011;2617;51.006;12.436;2023-10-13T20:42:09;5.30;;;3.47;;
5195;SDS011;2617;51.006;12.436;2023-10-13T20:47:11;10.20;;;3.50;;
5195;SDS011;2617;51.006;12.436;2023-10-13T20:52:13;10.33;;;3.90;;
5195;SDS011;2617;51.006;12.436;2023-10-13T20:57:15;6.57;;;3.50;;
5195;SDS011;2617;51.006;12.436;2023-10-13T21:02:17;7.40;;;2.97;;
5195;SDS011;2617;51.006;12.436;2023-10-13T21:07:19;5.67;;;3.60;;
5195;SDS011;2617;51.006;12.436;2023-10-13T21:12:20;5.70;;;4.70;;
5195;SDS011;2617;51.006;12.436;2023-10-13T21:17:22;4.90;;;3.30;;
5195;SDS011;2617;51.006;12.436;2023-10-13T21:22:25;6.07;;;2.80;;
5195;SDS011;2617;51.006;12.436;2023-10-13T21:27:28;8.70;;;3.00;;
5195;SDS011;2617;51.006;12.436;2023-10-13T21:32:29;6.27;;;3.10;;
5195;SDS011;2617;51.006;12.436;2023-10-13T21:37:31;10.20;;;3.13;;
5195;SDS011;2617;51.006;12.436;2023-10-13T21:42:33;18.92;;;3.33;;
5195;SDS011;2617;51.006;12.436;2023-10-13T21:47:35;6.73;;;2.97;;
5195;SDS011;2617;51.006;12.436;2023-10-13T21:52:37;7.87;;;3.22;;
5195;SDS011;2617;51.006;12.436;2023-10-13T21:57:39;6.37;;;3.30;;
5195;SDS011;2617;51.006;12.436;2023-10-13T22:02:40;6.12;;;2.95;;
5195;SDS011;2617;51.006;12.436;2023-10-13T22:07:43;7.65;;;3.25;;
5195;SDS011;2617;51.006;12.436;2023-10-13T22:12:46;7.53;;;3.00;;
5195;SDS011;2617;51.006;12.436;2023-10-13T22:17:47;6.83;;;2.97;;
5195;SDS011;2617;51.006;12.436;2023-10-13T22:22:49;7.80;;;2.93;;
5195;SDS011;2617;51.006;12.436;2023-10-13T22:27:51;7.97;;;3.17;;
5195;SDS011;2617;51.006;12.436;2023-10-13T22:32:53;6.23;;;3.00;;
5195;SDS011;2617;51.006;12.436;2023-10-13T22:37:56;5.40;;;2.50;;
5195;SDS011;2617;51.006;12.436;2023-10-13T22:42:58;7.07;;;3.30;;
5195;SDS011;2617;51.006;12.436;2023-10-13T22:48:00;6.80;;;2.93;;
5195;SDS011;2617;51.006;12.436;2023-10-13T22:53:02;5.93;;;3.13;;
5195;SDS011;2617;51.006;12.436;2023-10-13T22:58:04;11.23;;;3.10;;
5195;SDS011;2617;51.006;12.436;2023-10-13T23:03:06;11.55;;;2.70;;
5195;SDS011;2617;51.006;12.436;2023-10-13T23:08:09;5.78;;;2.65;;
5195;SDS011;2617;51.006;12.436;2023-10-13T23:13:13;4.43;;;2.83;;
5195;SDS011;2617;51.006;12.436;2023-10-13T23:18:16;6.13;;;3.50;;
5195;SDS011;2617;51.006;12.436;2023-10-13T23:23:17;2.70;;;2.10;;
5195;SDS011;2617;51.006;12.436;2023-10-13T23:28:19;7.10;;;2.40;;
5195;SDS011;2617;51.006;12.436;2023-10-13T23:33:22;11.32;;;4.22;;
5195;SDS011;2617;51.006;12.436;2023-10-13T23:38:23;4.30;;;2.63;;
5195;SDS011;2617;51.006;12.436;2023-10-13T23:43:26;2.67;;;2.20;;
5195;SDS011;2617;51.006;12.436;2023-10-13T23:48:28;6.73;;;2.63;;
5195;SDS011;2617;51.006;12.436;2023-10-13T23:53:31;6.90;;;2.77;;
5195;SDS011;2617;51.006;12.436;2023-10-13T23:58:32;9.40;;;3.00;;
